createdAt,value
2023-05-05T00:01:33.184Z,14.00
2023-05-05T00:04:00.410Z,14.00
2023-05-05T00:06:28.690Z,14.00
2023-05-05T00:08:56.318Z,13.90
2023-05-05T00:11:23.323Z,14.00
2023-05-05T00:13:50.748Z,14.00
2023-05-05T00:16:17.644Z,14.00
2023-05-05T00:18:44.865Z,14.00
2023-05-05T00:21:11.823Z,14.00
2023-05-05T00:23:38.756Z,14.00
2023-05-05T00:26:05.805Z,14.00
2023-05-05T00:28:32.734Z,13.90
2023-05-05T00:30:59.707Z,14.00
2023-05-05T00:33:26.839Z,13.90
2023-05-05T00:35:53.825Z,13.90
2023-05-05T00:38:20.722Z,13.80
2023-05-05T00:40:47.913Z,13.80
2023-05-05T00:43:14.989Z,13.80
2023-05-05T00:45:44.280Z,13.80
2023-05-05T00:48:11.340Z,13.80
2023-05-05T00:50:38.579Z,13.80
2023-05-05T00:53:06.739Z,13.80
2023-05-05T00:55:34.745Z,13.80
2023-05-05T00:58:02.665Z,13.70
2023-05-05T01:00:30.072Z,13.70
2023-05-05T01:02:57.692Z,13.70
2023-05-05T01:05:25.028Z,13.70
2023-05-05T01:08:16.522Z,13.70
2023-05-05T01:10:52.531Z,13.60
2023-05-05T01:13:42.884Z,13.60
2023-05-05T01:16:17.605Z,13.50
2023-05-05T01:19:17.382Z,13.50
2023-05-05T01:21:47.250Z,13.40
2023-05-05T01:24:51.355Z,13.40
2023-05-05T01:27:38.428Z,13.30
2023-05-05T01:30:41.887Z,13.30
2023-05-05T01:33:09.819Z,13.40
2023-05-05T01:35:41.792Z,13.40
2023-05-05T01:38:23.115Z,13.40
2023-05-05T01:41:04.918Z,13.40
2023-05-05T01:43:33.230Z,13.40
2023-05-05T01:46:00.176Z,13.30
2023-05-05T01:48:27.193Z,13.30
2023-05-05T01:50:54.124Z,13.20
2023-05-05T01:53:23.221Z,13.20
2023-05-05T01:55:50.260Z,13.20
2023-05-05T01:58:17.242Z,13.20
2023-05-05T02:00:44.678Z,13.30
2023-05-05T02:03:12.606Z,13.20
2023-05-05T02:05:39.723Z,13.20
2023-05-05T02:08:06.753Z,13.20
2023-05-05T02:10:33.728Z,13.20
2023-05-05T02:13:02.118Z,13.20
2023-05-05T02:15:29.424Z,13.10
2023-05-05T02:17:56.618Z,13.10
2023-05-05T02:20:23.760Z,13.10
2023-05-05T02:22:50.923Z,13.10
2023-05-05T02:25:18.012Z,13.10
2023-05-05T02:27:46.545Z,13.10
2023-05-05T02:30:14.810Z,13.10
2023-05-05T02:33:06.316Z,13.10
2023-05-05T02:35:40.496Z,13.10
2023-05-05T02:38:13.814Z,13.10
2023-05-05T02:40:42.724Z,13.00
2023-05-05T02:43:14.386Z,13.00
2023-05-05T02:45:41.416Z,13.00
2023-05-05T02:48:10.631Z,13.00
2023-05-05T02:50:39.117Z,13.00
2023-05-05T02:53:14.565Z,13.10
2023-05-05T02:55:45.722Z,13.10
2023-05-05T02:58:14.853Z,13.10
2023-05-05T03:00:59.326Z,13.20
2023-05-05T03:03:40.090Z,13.30
2023-05-05T03:06:14.012Z,13.30
2023-05-05T03:08:48.159Z,13.40
2023-05-05T03:11:21.795Z,13.40
2023-05-05T03:13:51.347Z,13.50
2023-05-05T03:16:21.624Z,13.50
2023-05-05T03:18:48.605Z,13.50
2023-05-05T03:21:15.783Z,13.50
2023-05-05T03:23:43.048Z,13.50
2023-05-05T03:26:18.725Z,13.50
2023-05-05T03:28:46.779Z,13.50
2023-05-05T03:31:25.067Z,13.50
2023-05-05T03:33:55.962Z,13.60
2023-05-05T03:36:29.268Z,13.60
2023-05-05T03:38:58.450Z,13.50
2023-05-05T03:41:27.761Z,13.50
2023-05-05T03:43:55.142Z,13.50
2023-05-05T03:46:22.175Z,13.50
2023-05-05T03:48:49.186Z,13.50
2023-05-05T03:51:16.459Z,13.50
2023-05-05T03:53:43.777Z,13.50
2023-05-05T03:56:11.182Z,13.50
2023-05-05T03:58:38.176Z,13.60
2023-05-05T04:01:05.258Z,13.60
2023-05-05T04:03:32.369Z,13.60
2023-05-05T04:06:00.008Z,13.70
2023-05-05T04:08:27.841Z,13.70
2023-05-05T04:10:54.847Z,13.70
2023-05-05T04:13:22.113Z,13.70
2023-05-05T04:15:49.285Z,13.70
2023-05-05T04:18:17.753Z,13.60
2023-05-05T04:20:44.820Z,13.60
2023-05-05T04:23:12.319Z,13.60
2023-05-05T04:25:40.353Z,13.60
2023-05-05T04:28:07.803Z,13.60
2023-05-05T04:30:34.762Z,13.50
2023-05-05T04:33:02.090Z,13.50
2023-05-05T04:35:29.764Z,13.50
2023-05-05T04:37:57.475Z,13.50
2023-05-05T04:40:26.251Z,13.50
2023-05-05T04:42:54.140Z,13.50
2023-05-05T04:45:21.653Z,13.60
2023-05-05T04:47:48.946Z,13.60
2023-05-05T04:50:16.616Z,13.60
2023-05-05T04:52:43.669Z,13.60
2023-05-05T04:55:11.656Z,13.70
2023-05-05T04:57:38.726Z,13.70
2023-05-05T05:00:06.712Z,13.70
2023-05-05T05:02:33.929Z,13.70
2023-05-05T05:05:01.080Z,13.70
2023-05-05T05:07:28.102Z,13.70
2023-05-05T05:09:55.157Z,13.80
2023-05-05T05:12:22.260Z,13.80
2023-05-05T05:14:50.495Z,13.80
2023-05-05T05:17:17.503Z,13.90
2023-05-05T05:19:44.411Z,13.90
2023-05-05T05:22:11.379Z,14.00
2023-05-05T05:24:40.935Z,14.00
2023-05-05T05:27:10.143Z,14.10
2023-05-05T05:29:39.165Z,14.20
2023-05-05T05:32:06.197Z,14.30
2023-05-05T05:34:33.388Z,14.30
2023-05-05T05:37:00.465Z,14.40
2023-05-05T05:39:27.841Z,14.40
2023-05-05T05:41:55.156Z,14.40
2023-05-05T05:44:22.294Z,14.50
2023-05-05T05:46:49.286Z,14.50
2023-05-05T05:49:16.928Z,14.50
2023-05-05T05:51:44.036Z,14.50
2023-05-05T05:54:10.962Z,14.40
2023-05-05T05:56:38.130Z,14.40
2023-05-05T05:59:08.067Z,14.40
2023-05-05T06:01:35.726Z,14.40
2023-05-05T06:04:03.652Z,14.40
2023-05-05T06:06:31.629Z,14.40
2023-05-05T06:08:58.812Z,14.40
2023-05-05T06:11:26.521Z,14.40
2023-05-05T06:13:53.536Z,14.40
2023-05-05T06:16:20.520Z,14.40
2023-05-05T06:18:48.272Z,14.40
2023-05-05T06:21:15.568Z,14.40
2023-05-05T06:23:42.688Z,14.40
2023-05-05T06:26:09.809Z,14.50
2023-05-05T06:28:36.793Z,14.50
2023-05-05T06:31:03.843Z,14.50
2023-05-05T06:33:30.822Z,14.50
2023-05-05T06:35:57.954Z,14.50
2023-05-05T06:38:25.101Z,14.50
2023-05-05T06:40:52.027Z,14.60
2023-05-05T06:43:18.948Z,14.80
2023-05-05T06:45:53.027Z,14.90
2023-05-05T06:48:20.255Z,14.90
2023-05-05T06:50:47.406Z,14.90
2023-05-05T06:53:14.321Z,14.80
2023-05-05T06:55:44.174Z,14.90
2023-05-05T06:58:11.957Z,15.00
2023-05-05T07:00:42.398Z,15.10
2023-05-05T07:03:09.405Z,15.30
2023-05-05T07:05:36.932Z,15.40
2023-05-05T07:08:04.001Z,15.20
2023-05-05T07:10:31.948Z,15.40
2023-05-05T07:12:59.204Z,15.40
2023-05-05T07:15:29.201Z,15.50
2023-05-05T07:17:57.268Z,15.50
2023-05-05T07:20:24.585Z,15.50
2023-05-05T07:22:51.618Z,15.60
2023-05-05T07:25:18.648Z,15.60
2023-05-05T07:27:45.664Z,15.50
2023-05-05T07:30:16.307Z,15.50
2023-05-05T07:32:43.506Z,15.60
2023-05-05T07:35:10.871Z,15.90
2023-05-05T07:37:37.774Z,16.00
2023-05-05T07:40:05.631Z,16.10
2023-05-05T07:42:33.215Z,16.20
2023-05-05T07:45:00.163Z,16.30
2023-05-05T07:47:27.481Z,16.20
2023-05-05T07:49:54.426Z,16.20
2023-05-05T07:52:30.101Z,16.00
2023-05-05T07:55:04.983Z,16.00
2023-05-05T07:57:31.889Z,16.30
2023-05-05T07:59:58.842Z,16.60
2023-05-05T08:02:25.927Z,17.00
2023-05-05T08:04:52.985Z,17.40
2023-05-05T08:07:20.082Z,17.60
2023-05-05T08:09:47.034Z,17.40
2023-05-05T08:12:15.247Z,17.50
2023-05-05T08:14:42.608Z,17.40
2023-05-05T08:17:09.511Z,17.70
2023-05-05T08:19:36.426Z,17.60
2023-05-05T08:22:03.383Z,17.60
2023-05-05T08:24:30.923Z,17.40
2023-05-05T08:26:58.014Z,17.70
2023-05-05T08:29:25.134Z,17.80
2023-05-05T08:31:52.575Z,17.60
2023-05-05T08:34:20.039Z,17.50
2023-05-05T08:36:49.060Z,17.50
2023-05-05T08:39:16.665Z,17.30
2023-05-05T08:41:43.650Z,17.40
2023-05-05T08:44:10.829Z,17.60
2023-05-05T08:46:37.919Z,17.50
2023-05-05T08:49:05.123Z,17.60
2023-05-05T08:51:35.912Z,17.30
2023-05-05T08:54:03.845Z,17.20
2023-05-05T08:56:36.811Z,17.50
2023-05-05T08:59:03.762Z,17.50
2023-05-05T09:01:31.457Z,17.70
2023-05-05T09:03:59.121Z,17.80
2023-05-05T09:06:27.405Z,18.10
2023-05-05T09:08:56.053Z,18.50
2023-05-05T09:11:24.446Z,18.60
2023-05-05T09:13:51.567Z,18.50
2023-05-05T09:16:18.508Z,18.10
2023-05-05T09:18:45.813Z,18.00
2023-05-05T09:21:25.024Z,17.80
2023-05-05T09:24:09.076Z,17.60
2023-05-05T09:26:37.954Z,17.40
2023-05-05T09:29:05.571Z,17.20
2023-05-05T09:31:33.349Z,17.30
2023-05-05T09:34:04.452Z,17.30
2023-05-05T09:36:45.599Z,17.40
2023-05-05T09:39:12.607Z,17.50
2023-05-05T09:41:40.376Z,17.30
2023-05-05T09:44:07.686Z,17.50
2023-05-05T09:46:34.794Z,17.80
2023-05-05T09:49:23.543Z,18.10
2023-05-05T09:51:51.641Z,18.50
2023-05-05T09:54:32.793Z,18.80
2023-05-05T09:56:59.726Z,18.90
2023-05-05T09:59:26.644Z,18.90
2023-05-05T10:01:53.883Z,19.20
2023-05-05T10:04:25.244Z,18.80
2023-05-05T10:06:52.238Z,18.70
2023-05-05T10:09:19.310Z,18.80
2023-05-05T10:11:47.318Z,19.30
2023-05-05T10:14:15.859Z,19.70
2023-05-05T10:16:49.440Z,20.10
2023-05-05T10:19:17.279Z,19.90
2023-05-05T10:21:50.644Z,19.80
2023-05-05T10:24:24.419Z,19.80
2023-05-05T10:26:51.401Z,19.90
2023-05-05T10:29:28.359Z,19.90
2023-05-05T10:31:55.343Z,19.90
2023-05-05T10:34:27.150Z,19.40
2023-05-05T10:36:55.190Z,19.50
2023-05-05T10:39:22.419Z,19.40
2023-05-05T10:41:49.690Z,19.20
2023-05-05T10:44:17.625Z,18.90
2023-05-05T10:46:44.906Z,18.70
2023-05-05T10:49:38.675Z,18.50
2023-05-05T10:52:14.572Z,18.50
2023-05-05T10:54:56.028Z,18.60
2023-05-05T10:57:25.078Z,18.80
2023-05-05T10:59:52.068Z,19.10
2023-05-05T11:02:29.504Z,19.10
2023-05-05T11:05:15.328Z,19.10
2023-05-05T11:07:42.809Z,19.40
2023-05-05T11:10:14.586Z,19.50
2023-05-05T11:13:04.891Z,19.40
2023-05-05T11:15:33.655Z,19.70
2023-05-05T11:18:02.655Z,20.00
2023-05-05T11:20:40.986Z,20.50
2023-05-05T11:23:08.138Z,20.30
2023-05-05T11:25:39.071Z,20.30
2023-05-05T11:28:07.152Z,20.50
2023-05-05T11:30:34.589Z,20.40
2023-05-05T11:33:24.176Z,20.20
2023-05-05T11:36:01.284Z,19.90
2023-05-05T11:38:53.717Z,19.60
2023-05-05T11:41:32.556Z,19.60
2023-05-05T11:44:32.216Z,19.80
2023-05-05T11:47:02.007Z,20.00
2023-05-05T11:49:30.023Z,20.20
2023-05-05T11:52:00.353Z,20.20
2023-05-05T11:54:27.389Z,20.30
2023-05-05T11:56:56.239Z,20.20
2023-05-05T11:59:23.193Z,19.90
2023-05-05T12:01:50.149Z,20.00
2023-05-05T12:04:48.627Z,20.10
2023-05-05T12:07:46.436Z,19.80
2023-05-05T12:10:53.713Z,19.50
2023-05-05T12:18:11.747Z,20.00
2023-05-05T12:20:48.224Z,20.00
2023-05-05T12:23:15.657Z,20.00
2023-05-05T12:25:42.855Z,19.80
2023-05-05T12:28:10.339Z,19.80
2023-05-05T12:30:37.631Z,20.10
2023-05-05T12:33:06.363Z,20.10
2023-05-05T12:35:33.638Z,20.00
2023-05-05T12:38:00.829Z,19.60
2023-05-05T12:40:49.078Z,19.30
2023-05-05T12:43:29.186Z,19.20
2023-05-05T12:46:03.755Z,19.30
2023-05-05T12:48:31.019Z,19.60
2023-05-05T12:51:14.947Z,20.00
2023-05-05T12:53:42.264Z,20.30
2023-05-05T12:56:38.748Z,20.30
2023-05-05T12:59:07.832Z,20.20
2023-05-05T13:01:35.896Z,20.00
2023-05-05T13:04:12.974Z,19.90
2023-05-05T13:06:41.423Z,19.90
2023-05-05T13:09:10.397Z,19.90
2023-05-05T13:11:38.144Z,19.80
2023-05-05T13:14:06.261Z,19.70
2023-05-05T13:16:34.016Z,19.50
2023-05-05T13:19:01.161Z,19.60
2023-05-05T13:21:28.289Z,19.40
2023-05-05T13:24:04.907Z,19.30
2023-05-05T13:26:39.561Z,19.20
2023-05-05T13:29:06.641Z,19.20
2023-05-05T13:31:33.921Z,19.30
2023-05-05T13:34:01.217Z,19.30
2023-05-05T13:36:28.241Z,19.40
2023-05-05T13:38:55.454Z,19.30
2023-05-05T13:41:22.515Z,19.10
2023-05-05T13:43:49.743Z,19.10
2023-05-05T13:46:19.983Z,19.30
2023-05-05T13:48:47.691Z,19.50
2023-05-05T13:51:16.421Z,19.80
2023-05-05T13:53:46.683Z,20.10
2023-05-05T13:56:14.487Z,19.90
2023-05-05T13:58:42.572Z,19.90
2023-05-05T14:01:10.024Z,19.70
2023-05-05T14:03:37.104Z,19.80
2023-05-05T14:06:04.173Z,19.80
2023-05-05T14:08:31.198Z,19.90
2023-05-05T14:10:58.160Z,19.90
2023-05-05T14:13:26.285Z,19.60
2023-05-05T14:15:53.937Z,19.70
2023-05-05T14:18:21.177Z,19.60
2023-05-05T14:20:48.124Z,19.40
2023-05-05T14:23:15.054Z,19.40
2023-05-05T14:25:41.989Z,19.40
2023-05-05T14:28:08.992Z,19.40
2023-05-05T14:30:35.946Z,19.30
2023-05-05T14:33:02.930Z,19.40
2023-05-05T14:35:31.385Z,19.40
2023-05-05T14:37:58.346Z,19.60
2023-05-05T14:40:25.245Z,19.60
2023-05-05T14:42:52.199Z,19.60
2023-05-05T14:45:19.392Z,19.80
2023-05-05T14:47:46.376Z,19.90
2023-05-05T14:50:14.234Z,19.90
2023-05-05T14:52:41.592Z,19.90
2023-05-05T14:55:09.374Z,19.80
2023-05-05T14:57:38.278Z,19.70
2023-05-05T15:00:08.248Z,19.70
2023-05-05T15:02:35.488Z,19.90
2023-05-05T15:05:02.449Z,20.00
2023-05-05T15:07:29.912Z,20.10
2023-05-05T15:09:56.819Z,20.10
2023-05-05T15:12:23.971Z,20.20
2023-05-05T15:14:51.034Z,20.50
2023-05-05T15:17:18.011Z,20.50
2023-05-05T15:19:45.017Z,20.30
2023-05-05T15:22:11.995Z,20.20
2023-05-05T15:24:39.018Z,20.30
2023-05-05T15:27:06.101Z,20.30
2023-05-05T15:29:33.205Z,20.20
2023-05-05T15:32:00.470Z,20.00
2023-05-05T15:34:27.739Z,19.90
2023-05-05T15:36:54.805Z,19.70
2023-05-05T15:39:21.769Z,19.60
2023-05-05T15:41:48.802Z,19.70
2023-05-05T15:44:16.052Z,19.70
2023-05-05T15:46:43.045Z,19.80
2023-05-05T15:49:12.780Z,19.90
2023-05-05T15:51:40.364Z,19.80
2023-05-05T15:54:07.781Z,19.50
2023-05-05T15:56:34.894Z,19.50
2023-05-05T15:59:03.360Z,19.50
2023-05-05T16:01:30.378Z,19.60
2023-05-05T16:03:58.055Z,19.60
2023-05-05T16:06:27.360Z,19.70
2023-05-05T16:08:56.114Z,19.70
2023-05-05T16:11:24.023Z,19.80
2023-05-05T16:13:51.054Z,19.90
2023-05-05T16:16:18.188Z,20.00
2023-05-05T16:18:45.337Z,20.10
2023-05-05T16:21:12.363Z,20.00
2023-05-05T16:23:39.431Z,19.80
2023-05-05T16:26:06.393Z,19.80
2023-05-05T16:28:34.391Z,19.80
2023-05-05T16:31:02.329Z,19.80
2023-05-05T16:33:29.761Z,19.70
2023-05-05T16:35:57.099Z,19.60
2023-05-05T16:38:24.098Z,19.70
2023-05-05T16:40:51.075Z,19.60
2023-05-05T16:43:19.636Z,19.60
2023-05-05T16:45:46.803Z,19.50
2023-05-05T16:48:14.765Z,19.50
2023-05-05T16:50:41.857Z,19.30
2023-05-05T16:53:10.085Z,19.40
2023-05-05T16:55:37.522Z,19.30
2023-05-05T16:58:04.696Z,19.30
2023-05-05T17:00:31.809Z,19.20
2023-05-05T17:02:58.945Z,19.20
2023-05-05T17:05:26.077Z,19.20
2023-05-05T17:07:53.199Z,19.20
2023-05-05T17:10:20.251Z,19.30
2023-05-05T17:12:47.303Z,19.30
2023-05-05T17:15:14.426Z,19.30
2023-05-05T17:17:43.000Z,19.30
2023-05-05T17:20:11.055Z,19.30
2023-05-05T17:22:38.108Z,19.10
2023-05-05T17:25:05.895Z,19.00
2023-05-05T17:27:33.127Z,18.90
2023-05-05T17:30:00.060Z,19.00
2023-05-05T17:32:27.317Z,19.00
2023-05-05T17:34:54.466Z,19.00
2023-05-05T17:37:21.533Z,19.10
2023-05-05T17:39:48.601Z,19.10
2023-05-05T17:42:18.692Z,19.10
2023-05-05T17:44:47.549Z,19.00
2023-05-05T17:47:14.687Z,18.80
2023-05-05T17:49:41.745Z,18.80
2023-05-05T17:52:08.697Z,18.80
2023-05-05T17:54:35.833Z,18.80
2023-05-05T17:57:02.910Z,18.70
2023-05-05T17:59:31.541Z,18.70
2023-05-05T18:01:58.485Z,18.60
2023-05-05T18:04:25.565Z,18.60
2023-05-05T18:06:55.711Z,18.50
2023-05-05T18:09:23.443Z,18.50
2023-05-05T18:11:53.773Z,18.50
2023-05-05T18:14:22.490Z,18.50
2023-05-05T18:16:52.205Z,18.40
2023-05-05T18:19:22.940Z,18.30
2023-05-05T18:21:51.716Z,18.30
2023-05-05T18:24:20.390Z,18.20
2023-05-05T18:26:51.443Z,18.10
2023-05-05T18:29:19.202Z,18.00
2023-05-05T18:31:49.645Z,17.90
2023-05-05T18:34:17.143Z,17.90
2023-05-05T18:36:44.707Z,18.00
2023-05-05T18:39:11.839Z,17.90
2023-05-05T18:41:40.073Z,18.00
2023-05-05T18:44:07.557Z,17.90
2023-05-05T18:46:34.624Z,17.80
2023-05-05T18:49:01.957Z,17.70
2023-05-05T18:51:29.153Z,17.70
2023-05-05T18:53:56.360Z,17.70
2023-05-05T18:56:23.401Z,17.60
2023-05-05T18:58:50.593Z,17.50
2023-05-05T19:01:17.916Z,17.50
2023-05-05T19:03:48.245Z,17.50
2023-05-05T19:06:15.949Z,17.50
2023-05-05T19:08:43.831Z,17.50
2023-05-05T19:11:11.163Z,17.50
2023-05-05T19:13:39.924Z,17.40
2023-05-05T19:16:07.779Z,17.30
2023-05-05T19:18:34.847Z,17.30
2023-05-05T19:21:02.203Z,17.30
2023-05-05T19:23:29.286Z,17.20
2023-05-05T19:25:56.575Z,17.20
2023-05-05T19:28:24.412Z,17.20
2023-05-05T19:30:52.287Z,17.20
2023-05-05T19:33:19.447Z,17.20
2023-05-05T19:35:46.565Z,17.20
2023-05-05T19:38:13.804Z,17.10
2023-05-05T19:40:43.873Z,17.10
2023-05-05T19:43:11.502Z,17.00
2023-05-05T19:45:38.717Z,16.90
2023-05-05T19:48:06.373Z,16.90
2023-05-05T19:50:33.523Z,16.90
2023-05-05T19:53:00.739Z,17.00
2023-05-05T19:55:27.754Z,16.90
2023-05-05T19:57:54.997Z,16.90
2023-05-05T20:00:22.079Z,16.80
2023-05-05T20:02:49.253Z,16.80
2023-05-05T20:05:17.618Z,16.80
2023-05-05T20:07:46.481Z,16.70
2023-05-05T20:10:13.969Z,16.70
2023-05-05T20:12:47.642Z,16.60
2023-05-05T20:15:19.050Z,16.50
2023-05-05T20:17:49.589Z,16.30
2023-05-05T20:20:19.167Z,16.20
2023-05-05T20:22:48.040Z,16.10
2023-05-05T20:25:18.461Z,16.10
2023-05-05T20:27:45.969Z,16.10
2023-05-05T20:30:13.565Z,16.00
2023-05-05T20:32:40.957Z,16.00
2023-05-05T20:35:08.755Z,16.00
2023-05-05T20:37:36.366Z,15.90
2023-05-05T20:40:03.841Z,15.90
2023-05-05T20:42:30.901Z,15.80
2023-05-05T20:44:58.019Z,15.80
2023-05-05T20:47:25.448Z,15.80
2023-05-05T20:49:52.684Z,15.80
2023-05-05T20:52:19.879Z,15.70
2023-05-05T20:54:46.796Z,15.60
2023-05-05T20:57:13.897Z,15.60
2023-05-05T20:59:40.790Z,15.60
2023-05-05T21:02:08.063Z,15.50
2023-05-05T21:04:35.249Z,15.50
2023-05-05T21:07:03.322Z,15.50
2023-05-05T21:09:31.520Z,15.40
2023-05-05T21:11:58.566Z,15.40
2023-05-05T21:14:25.565Z,15.30
2023-05-05T21:16:52.772Z,15.30
2023-05-05T21:19:20.068Z,15.20
2023-05-05T21:21:47.688Z,15.10
2023-05-05T21:24:14.659Z,15.10
2023-05-05T21:26:45.161Z,15.10
2023-05-05T21:29:12.205Z,15.10
2023-05-05T21:31:39.129Z,15.10
2023-05-05T21:34:06.062Z,15.00
2023-05-05T21:36:34.110Z,15.00
2023-05-05T21:39:01.227Z,15.00
2023-05-05T21:41:28.334Z,14.90
2023-05-05T21:43:55.736Z,14.90
2023-05-05T21:46:22.936Z,14.90
2023-05-05T21:48:50.125Z,14.80
2023-05-05T21:51:17.667Z,14.80
2023-05-05T21:53:45.003Z,14.90
2023-05-05T21:56:12.044Z,14.70
2023-05-05T21:58:39.033Z,14.80
2023-05-05T22:01:06.102Z,14.80
2023-05-05T22:03:34.432Z,14.70
2023-05-05T22:06:01.471Z,14.70
2023-05-05T22:08:28.508Z,14.70
2023-05-05T22:10:55.550Z,14.70
2023-05-05T22:13:22.677Z,14.70
2023-05-05T22:15:49.815Z,14.70
2023-05-05T22:18:17.181Z,14.70
2023-05-05T22:20:44.273Z,14.70
2023-05-05T22:23:11.260Z,14.70
2023-05-05T22:25:38.334Z,14.60
2023-05-05T22:28:05.642Z,14.60
2023-05-05T22:30:32.673Z,14.60
2023-05-05T22:32:59.778Z,14.50
2023-05-05T22:35:27.168Z,14.50
2023-05-05T22:37:54.293Z,14.50
2023-05-05T22:40:21.415Z,14.40
2023-05-05T22:42:48.330Z,14.40
2023-05-05T22:45:15.513Z,14.40
2023-05-05T22:47:42.629Z,14.40
2023-05-05T22:50:10.086Z,14.30
2023-05-05T22:52:37.252Z,14.30
2023-05-05T22:55:04.541Z,14.30
2023-05-05T22:57:31.518Z,14.30
2023-05-05T22:59:58.429Z,14.30
2023-05-05T23:02:26.780Z,14.30
2023-05-05T23:04:54.009Z,14.30
2023-05-05T23:07:21.036Z,14.30
2023-05-05T23:09:48.131Z,14.30
2023-05-05T23:12:15.233Z,14.30
2023-05-05T23:14:42.266Z,14.20
2023-05-05T23:17:09.489Z,14.30
2023-05-05T23:19:36.787Z,14.20
2023-05-05T23:22:03.912Z,14.20
2023-05-05T23:24:31.048Z,14.20
2023-05-05T23:27:04.170Z,14.10
2023-05-05T23:29:31.141Z,14.10
2023-05-05T23:31:58.351Z,14.00
2023-05-05T23:34:26.209Z,14.00
2023-05-05T23:36:53.408Z,13.90
2023-05-05T23:39:20.330Z,13.90
2023-05-05T23:41:47.207Z,13.80
2023-05-05T23:44:14.174Z,13.80
2023-05-05T23:46:41.197Z,13.80
2023-05-05T23:49:08.646Z,13.80
2023-05-05T23:51:35.825Z,13.80
2023-05-05T23:54:03.294Z,13.80
2023-05-05T23:56:30.565Z,13.80
2023-05-05T23:58:57.519Z,13.80
